La Coste, Texas
Current Conditions -  °F | °C
As of 4:15 AM on Friday 31 Oct 2014 (Local Time) from KCVB Reporting Station
Thunderstorm Thunderstorm  
Wind Chill: 68°   Ceiling: 900
Heat Index: 68°   Visibility: 4mi
Dew Point: 63°   Wind: 9mph
Humidity: 83%   Direction: 290°WNW
Pressure: 30.14"   Gusts: 23mph
Location:  29.31°N, 98.81°W
Report Text: KCVB 310915Z AUTO 29008G20KT 300V160 4SM +TSRA BKN009 BKN016 OVC027 20/17 A3014 RMK AO2 LTG DSNT ALQS P0013 T01990170
Loading
Personal Weather Stations






























Interactive Weather Map
Tropical Storm Tracking
New forecast layout! Learn more

10-Day Weather Forecast

Advertisements
Track Severe Weather on mobile